FMEE/RUN METAR and TAF weather

Enter ICAO airport designator
Station Type Date Time Source
FMEE METAR 2019/12/13 14:00 UTC NOAA

FMEE 131400Z AUTO 32004KT 9999 FEW098 30/25 Q1012 NOSIG


Station Type Date Time Source
FMEE Decoded METAR 2019/12/13 14:00 UTC NOAA

Saint-Denis / Gillot, Reunion (FMEE) 20-53S 055-31E 25M
Dec 13, 2019 - 09:00 AM EST / 2019.12.13 1400 UTC
Wind: from the NW (320 degrees) at 5 MPH (4 KT):0
Visibility: greater than 7 mile(s):0
Sky conditions: mostly clear
Temperature: 86 F (30 C)
Heat index: 96.8 F (36.0 C):1
Dew Point: 77 F (25 C)
Relative Humidity: 74%
Pressure (altimeter): 29.88 in. Hg (1012 hPa)
ob: FMEE 131400Z AUTO 32004KT 9999 FEW098 30/25 Q1012 NOSIG
cycle: 14

Station Type Date Time Source
FMEE TAF 2019/12/13 12:27 UTC NOAA

TAF TAF FMEE 131100Z 1312/1418 35008KT 9999 SCT035 BKN045
BECMG 1317/1319 18005KT PROB30
TEMPO 1

Example: see airport list